KILG

New Castle Airport

Wilmington, Delaware, USA
KILG 161724Z 1618/1718 23009KT P6SM VCTS SCT050CB FM170200 17005KT P6SM VCSH SCT070 SCT250 TEMPO 1708/1712 5SM BR FM171200 20007KT P6SM VCSH BKN070
Issued Valid From Valid To
Jul-16 @ 17:24 UTC
(3 hours ago)
Jul-16 @ 18:00 UTC
(2 hours ago)
Jul-17 @ 18:00 UTC
(in 22 hours)
Jul-16 @ 18:00 to Jul-17 @ 02:00
KILG 161724Z 1618/1718 23009KT P6SM VCTS SCT050CB
Wind Visibility Clouds Conditions
230° at 9 knots Greater than 6 miles
  • Scattered at 5,000' AGL
  • Area Thunderstorm
From Jul-17 @ 02:00 to Jul-17 @ 12:00
FM170200 17005KT P6SM VCSH SCT070 SCT250
Wind Visibility Clouds
170° at 5 knots Greater than 6 miles
  • Scattered at 7,000' AGL
  • Scattered at 25,000' AGL
Temporary Jul-17 @ 08:00 to Jul-17 @ 12:00
TEMPO 1708/1712 5SM BR
Visibility Conditions
5 miles
  • Mist
From Jul-17 @ 12:00 to Jul-17 @ 18:00
FM171200 20007KT P6SM VCSH BKN070
Wind Visibility Clouds
200° at 7 knots Greater than 6 miles
  • Broken at 7,000' AGL
KILG 161724Z 1618/1718 23009KT P6SM VCTS SCT050CB FM170200 17005KT P6SM VCSH SCT070 SCT250 TEMPO 1708/1712 5SM BR FM171200 20007KT P6SM VCSH BKN070
Issued Jul-16 @ 17:24 UTC
(3 hours ago)
Valid From Jul-16 @ 18:00 UTC
(2 hours ago)
Valid To Jul-17 @ 18:00 UTC
(in 22 hours)
Jul-16 @ 18:00 - Jul-17 @ 02:00
Wind Visibility
230° at 9 knots Greater than 6 miles
Clouds
  • Scattered at 5,000' AGL
Conditions
  • Area Thunderstorm
From Jul-17 @ 02:00 - Jul-17 @ 12:00
Wind Visibility
170° at 5 knots Greater than 6 miles
Clouds
  • Scattered at 7,000' AGL
  • Scattered at 25,000' AGL
Temporary Jul-17 @ 08:00 - Jul-17 @ 12:00
Conditions
  • Mist
From Jul-17 @ 12:00 - Jul-17 @ 18:00
Wind Visibility
200° at 7 knots Greater than 6 miles
Clouds
  • Broken at 7,000' AGL